메인 페이지
METAR-TAF:

METAR-TAF

공항 :

Slidell Airport

Slidell, 루이지애나, 미국

위도: 30-20-35N, 경도: 089-49-19W, 고도: 9m

현재 날씨관측

예보는 40분 전, 18:53시(UTC)에 발표되었습니다.
무풍
온도 21°C
습도 43%
기압 1022 hPa
시정: 16.1km
맑음

METAR: KASD 181853Z AUTO 00000KT 10SM CLR 21/08 A3017 RMK AO2 SLP215 T02060078 $

시각: 13:33 (19:33 UTC)

예보

예보는 2 시간 13분 전, 17:20시(UTC)에 발표되었습니다.
예보 대상 시간: 18일 18시부터 19일 18시까지 (UTC)
여러 방향의 바람 3kt
시정: 10km
맑음

TAF: KASD 181720Z 1818/1918 VRB03KT P6SM SKC

4,000개 이상의 공항 관측 자료 및 예보 (METAR 및 TAF 보고).

지도상에서 검색 가능한 기상관측소가 노란 점과 빨간 점으로 표시되어 있습니다.

기상관측소 명을 보려면 표시 위로 마우스를 이동하세요.

날씨 관측과 예보를 보려면 클릭하세요.

지도 변경 : 확대하려면 엑스 표시가 있는 녹색 버튼, 축소하려면 빼기 표시가 있는 녹색 버튼, 다음 페이지의 지도를 보려면 녹색 화살표를 클릭하세요.


METAR-TAF: